<?xml version="1.0" encoding="UTF-8" standalone="no" ?>
<gpx xmlns="http://www.topografix.com/GPX/1/1" creator="www.plotaroute.com" version="1.1"  xmlns:xsi="http://www.w3.org/2001/XMLSchema-instance" xsi:schemaLocation="http://www.topografix.com/GPX/1/1 http://www.topografix.com/GPX/1/1/gpx.xsd">
<metadata>
<desc>Route created on plotaroute.com</desc>
</metadata>
<trk>
<name>180801-RLE-Warwick-44ml</name>
<trkseg>
<trkpt lat="52.36906" lon="-1.83534">
<ele>147</ele>
<time>2018-07-20T00:00:00Z</time></trkpt>
<trkpt lat="52.36908" lon="-1.83539">
<ele>147</ele>
<time>2018-07-20T00:00:03Z</time></trkpt>
<trkpt lat="52.37059" lon="-1.83469">
<ele>147</ele>
<time>2018-07-20T00:02:09Z</time></trkpt>
<trkpt lat="52.37155" lon="-1.83416">
<ele>143</ele>
<time>2018-07-20T00:03:30Z</time></trkpt>
<trkpt lat="52.37242" lon="-1.83397">
<ele>143</ele>
<time>2018-07-20T00:04:40Z</time></trkpt>
<trkpt lat="52.37289" lon="-1.83379">
<ele>144</ele>
<time>2018-07-20T00:05:19Z</time></trkpt>
<trkpt lat="52.37345" lon="-1.83352">
<ele>144</ele>
<time>2018-07-20T00:06:06Z</time></trkpt>
<trkpt lat="52.37392" lon="-1.83314">
<ele>145</ele>
<time>2018-07-20T00:06:48Z</time></trkpt>
<trkpt lat="52.37541" lon="-1.83097">
<ele>142</ele>
<time>2018-07-20T00:09:28Z</time></trkpt>
<trkpt lat="52.37626" lon="-1.82939">
<ele>141</ele>
<time>2018-07-20T00:11:11Z</time></trkpt>
<trkpt lat="52.3766" lon="-1.82894">
<ele>141</ele>
<time>2018-07-20T00:11:46Z</time></trkpt>
<trkpt lat="52.37798" lon="-1.82815">
<ele>143</ele>
<time>2018-07-20T00:13:43Z</time></trkpt>
<trkpt lat="52.37905" lon="-1.82768">
<ele>143</ele>
<time>2018-07-20T00:15:12Z</time></trkpt>
<trkpt lat="52.37997" lon="-1.82684">
<ele>143</ele>
<time>2018-07-20T00:16:36Z</time></trkpt>
<trkpt lat="52.38145" lon="-1.82511">
<ele>143</ele>
<time>2018-07-20T00:19:02Z</time></trkpt>
<trkpt lat="52.38189" lon="-1.82431">
<ele>142</ele>
<time>2018-07-20T00:19:54Z</time></trkpt>
<trkpt lat="52.38226" lon="-1.82245">
<ele>143</ele>
<time>2018-07-20T00:21:30Z</time></trkpt>
<trkpt lat="52.38218" lon="-1.8221">
<ele>142</ele>
<time>2018-07-20T00:21:48Z</time></trkpt>
<trkpt lat="52.37962" lon="-1.82219">
<ele>136</ele>
<time>2018-07-20T00:25:14Z</time></trkpt>
<trkpt lat="52.37939" lon="-1.82212">
<ele>135</ele>
<time>2018-07-20T00:25:32Z</time></trkpt>
<trkpt lat="52.3788" lon="-1.82167">
<ele>133</ele>
<time>2018-07-20T00:26:25Z</time></trkpt>
<trkpt lat="52.3784" lon="-1.82125">
<ele>131</ele>
<time>2018-07-20T00:27:03Z</time></trkpt>
<trkpt lat="52.37791" lon="-1.82042">
<ele>130</ele>
<time>2018-07-20T00:27:59Z</time></trkpt>
<trkpt lat="52.3776" lon="-1.82012">
<ele>130</ele>
<time>2018-07-20T00:28:28Z</time></trkpt>
<trkpt lat="52.37785" lon="-1.81881">
<ele>130</ele>
<time>2018-07-20T00:29:35Z</time></trkpt>
<trkpt lat="52.3779" lon="-1.81799">
<ele>129</ele>
<time>2018-07-20T00:30:15Z</time></trkpt>
<trkpt lat="52.37785" lon="-1.81751">
<ele>129</ele>
<time>2018-07-20T00:30:39Z</time></trkpt>
<trkpt lat="52.37745" lon="-1.81659">
<ele>129</ele>
<time>2018-07-20T00:31:35Z</time></trkpt>
<trkpt lat="52.3765" lon="-1.81517">
<ele>128</ele>
<time>2018-07-20T00:33:18Z</time></trkpt>
<trkpt lat="52.37598" lon="-1.81461">
<ele>129</ele>
<time>2018-07-20T00:34:07Z</time></trkpt>
<trkpt lat="52.37503" lon="-1.81381">
<ele>129</ele>
<time>2018-07-20T00:35:33Z</time></trkpt>
<trkpt lat="52.37344" lon="-1.81281">
<ele>137</ele>
<time>2018-07-20T00:37:50Z</time></trkpt>
<trkpt lat="52.37233" lon="-1.81196">
<ele>139</ele>
<time>2018-07-20T00:39:28Z</time></trkpt>
<trkpt lat="52.37125" lon="-1.81147">
<ele>143</ele>
<time>2018-07-20T00:40:58Z</time></trkpt>
<trkpt lat="52.37055" lon="-1.81096">
<ele>145</ele>
<time>2018-07-20T00:41:59Z</time></trkpt>
<trkpt lat="52.36949" lon="-1.81049">
<ele>146</ele>
<time>2018-07-20T00:43:27Z</time></trkpt>
<trkpt lat="52.36897" lon="-1.8101">
<ele>145</ele>
<time>2018-07-20T00:44:13Z</time></trkpt>
<trkpt lat="52.36838" lon="-1.80953">
<ele>143</ele>
<time>2018-07-20T00:45:08Z</time></trkpt>
<trkpt lat="52.36689" lon="-1.8078">
<ele>143</ele>
<time>2018-07-20T00:47:34Z</time></trkpt>
<trkpt lat="52.36609" lon="-1.80669">
<ele>142</ele>
<time>2018-07-20T00:48:58Z</time></trkpt>
<trkpt lat="52.36595" lon="-1.80434">
<ele>145</ele>
<time>2018-07-20T00:50:54Z</time></trkpt>
<trkpt lat="52.3664" lon="-1.80315">
<ele>143</ele>
<time>2018-07-20T00:52:02Z</time></trkpt>
<trkpt lat="52.36726" lon="-1.80162">
<ele>143</ele>
<time>2018-07-20T00:53:44Z</time></trkpt>
<trkpt lat="52.36787" lon="-1.80034">
<ele>143</ele>
<time>2018-07-20T00:55:04Z</time></trkpt>
<trkpt lat="52.36816" lon="-1.79928">
<ele>141</ele>
<time>2018-07-20T00:56:00Z</time></trkpt>
<trkpt lat="52.36823" lon="-1.79814">
<ele>136</ele>
<time>2018-07-20T00:56:56Z</time></trkpt>
<trkpt lat="52.36797" lon="-1.79674">
<ele>133</ele>
<time>2018-07-20T00:58:08Z</time></trkpt>
<trkpt lat="52.36679" lon="-1.79297">
<ele>135</ele>
<time>2018-07-20T01:01:35Z</time></trkpt>
<trkpt lat="52.36666" lon="-1.79237">
<ele>137</ele>
<time>2018-07-20T01:02:07Z</time></trkpt>
<trkpt lat="52.36614" lon="-1.78908">
<ele>140</ele>
<time>2018-07-20T01:04:53Z</time></trkpt>
<trkpt lat="52.36585" lon="-1.7863">
<ele>143</ele>
<time>2018-07-20T01:07:11Z</time></trkpt>
<trkpt lat="52.36554" lon="-1.78517">
<ele>142</ele>
<time>2018-07-20T01:08:12Z</time></trkpt>
<trkpt lat="52.3645" lon="-1.78257">
<ele>143</ele>
<time>2018-07-20T01:10:44Z</time></trkpt>
<trkpt lat="52.36442" lon="-1.78228">
<ele>143</ele>
<time>2018-07-20T01:10:59Z</time></trkpt>
<trkpt lat="52.36452" lon="-1.78216">
<ele>143</ele>
<time>2018-07-20T01:11:09Z</time></trkpt>
<trkpt lat="52.36455" lon="-1.78196">
<ele>143</ele>
<time>2018-07-20T01:11:19Z</time></trkpt>
<trkpt lat="52.36442" lon="-1.78172">
<ele>143</ele>
<time>2018-07-20T01:11:35Z</time></trkpt>
<trkpt lat="52.36498" lon="-1.77932">
<ele>144</ele>
<time>2018-07-20T01:13:41Z</time></trkpt>
<trkpt lat="52.36521" lon="-1.77875">
<ele>143</ele>
<time>2018-07-20T01:14:14Z</time></trkpt>
<trkpt lat="52.36697" lon="-1.77549">
<ele>140</ele>
<time>2018-07-20T01:17:47Z</time></trkpt>
<trkpt lat="52.36723" lon="-1.77512">
<ele>141</ele>
<time>2018-07-20T01:18:15Z</time></trkpt>
<trkpt lat="52.36945" lon="-1.77266">
<ele>136</ele>
<time>2018-07-20T01:21:50Z</time></trkpt>
<trkpt lat="52.37033" lon="-1.77187">
<ele>136</ele>
<time>2018-07-20T01:23:10Z</time></trkpt>
<trkpt lat="52.37043" lon="-1.77142">
<ele>136</ele>
<time>2018-07-20T01:23:33Z</time></trkpt>
<trkpt lat="52.37056" lon="-1.76835">
<ele>134</ele>
<time>2018-07-20T01:26:04Z</time></trkpt>
<trkpt lat="52.36991" lon="-1.76762">
<ele>133</ele>
<time>2018-07-20T01:27:07Z</time></trkpt>
<trkpt lat="52.36873" lon="-1.76534">
<ele>135</ele>
<time>2018-07-20T01:29:33Z</time></trkpt>
<trkpt lat="52.36825" lon="-1.76334">
<ele>134</ele>
<time>2018-07-20T01:31:19Z</time></trkpt>
<trkpt lat="52.36808" lon="-1.76105">
<ele>131</ele>
<time>2018-07-20T01:33:11Z</time></trkpt>
<trkpt lat="52.36756" lon="-1.76075">
<ele>133</ele>
<time>2018-07-20T01:33:56Z</time></trkpt>
<trkpt lat="52.36589" lon="-1.75955">
<ele>128</ele>
<time>2018-07-20T01:36:22Z</time></trkpt>
<trkpt lat="52.36531" lon="-1.75844">
<ele>127</ele>
<time>2018-07-20T01:37:33Z</time></trkpt>
<trkpt lat="52.3635" lon="-1.75396">
<ele>125</ele>
<time>2018-07-20T01:41:56Z</time></trkpt>
<trkpt lat="52.36395" lon="-1.75347">
<ele>123</ele>
<time>2018-07-20T01:42:40Z</time></trkpt>
<trkpt lat="52.36399" lon="-1.75328">
<ele>123</ele>
<time>2018-07-20T01:42:49Z</time></trkpt>
<trkpt lat="52.36386" lon="-1.75244">
<ele>123</ele>
<time>2018-07-20T01:43:32Z</time></trkpt>
<trkpt lat="52.36344" lon="-1.75143">
<ele>125</ele>
<time>2018-07-20T01:44:32Z</time></trkpt>
<trkpt lat="52.36297" lon="-1.74936">
<ele>122</ele>
<time>2018-07-20T01:46:20Z</time></trkpt>
<trkpt lat="52.36296" lon="-1.74622">
<ele>119</ele>
<time>2018-07-20T01:48:53Z</time></trkpt>
<trkpt lat="52.36313" lon="-1.74515">
<ele>118</ele>
<time>2018-07-20T01:49:48Z</time></trkpt>
<trkpt lat="52.36295" lon="-1.74331">
<ele>118</ele>
<time>2018-07-20T01:51:19Z</time></trkpt>
<trkpt lat="52.36218" lon="-1.7406">
<ele>114</ele>
<time>2018-07-20T01:53:45Z</time></trkpt>
<trkpt lat="52.36335" lon="-1.74001">
<ele>114</ele>
<time>2018-07-20T01:55:23Z</time></trkpt>
<trkpt lat="52.36437" lon="-1.74005">
<ele>113</ele>
<time>2018-07-20T01:56:45Z</time></trkpt>
<trkpt lat="52.36502" lon="-1.73939">
<ele>113</ele>
<time>2018-07-20T01:57:46Z</time></trkpt>
<trkpt lat="52.36509" lon="-1.73877">
<ele>113</ele>
<time>2018-07-20T01:58:17Z</time></trkpt>
<trkpt lat="52.36492" lon="-1.73809">
<ele>113</ele>
<time>2018-07-20T01:58:53Z</time></trkpt>
<trkpt lat="52.3649" lon="-1.73759">
<ele>113</ele>
<time>2018-07-20T01:59:18Z</time></trkpt>
<trkpt lat="52.36545" lon="-1.7353">
<ele>117</ele>
<time>2018-07-20T02:01:18Z</time></trkpt>
<trkpt lat="52.36527" lon="-1.73453">
<ele>119</ele>
<time>2018-07-20T02:01:58Z</time></trkpt>
<trkpt lat="52.36517" lon="-1.73351">
<ele>120</ele>
<time>2018-07-20T02:02:49Z</time></trkpt>
<trkpt lat="52.36474" lon="-1.73173">
<ele>119</ele>
<time>2018-07-20T02:04:23Z</time></trkpt>
<trkpt lat="52.36465" lon="-1.72971">
<ele>121</ele>
<time>2018-07-20T02:06:02Z</time></trkpt>
<trkpt lat="52.36494" lon="-1.72849">
<ele>121</ele>
<time>2018-07-20T02:07:06Z</time></trkpt>
<trkpt lat="52.36521" lon="-1.72658">
<ele>117</ele>
<time>2018-07-20T02:08:42Z</time></trkpt>
<trkpt lat="52.36541" lon="-1.72073">
<ele>109</ele>
<time>2018-07-20T02:13:28Z</time></trkpt>
<trkpt lat="52.36516" lon="-1.71828">
<ele>106</ele>
<time>2018-07-20T02:15:30Z</time></trkpt>
<trkpt lat="52.36534" lon="-1.71799">
<ele>105</ele>
<time>2018-07-20T02:15:50Z</time></trkpt>
<trkpt lat="52.36597" lon="-1.71747">
<ele>104</ele>
<time>2018-07-20T02:16:47Z</time></trkpt>
<trkpt lat="52.36629" lon="-1.71705">
<ele>104</ele>
<time>2018-07-20T02:17:20Z</time></trkpt>
<trkpt lat="52.36682" lon="-1.71578">
<ele>105</ele>
<time>2018-07-20T02:18:35Z</time></trkpt>
<trkpt lat="52.36842" lon="-1.71407">
<ele>104</ele>
<time>2018-07-20T02:21:08Z</time></trkpt>
<trkpt lat="52.36914" lon="-1.71512">
<ele>104</ele>
<time>2018-07-20T02:22:25Z</time></trkpt>
<trkpt lat="52.36943" lon="-1.71538">
<ele>105</ele>
<time>2018-07-20T02:22:52Z</time></trkpt>
<trkpt lat="52.36969" lon="-1.71547">
<ele>105</ele>
<time>2018-07-20T02:23:13Z</time></trkpt>
<trkpt lat="52.37" lon="-1.71544">
<ele>106</ele>
<time>2018-07-20T02:23:38Z</time></trkpt>
<trkpt lat="52.37149" lon="-1.71451">
<ele>105</ele>
<time>2018-07-20T02:25:46Z</time></trkpt>
<trkpt lat="52.37175" lon="-1.71444">
<ele>105</ele>
<time>2018-07-20T02:26:07Z</time></trkpt>
<trkpt lat="52.37204" lon="-1.71447">
<ele>105</ele>
<time>2018-07-20T02:26:30Z</time></trkpt>
<trkpt lat="52.37238" lon="-1.71474">
<ele>106</ele>
<time>2018-07-20T02:27:01Z</time></trkpt>
<trkpt lat="52.37268" lon="-1.71528">
<ele>105</ele>
<time>2018-07-20T02:27:36Z</time></trkpt>
<trkpt lat="52.37335" lon="-1.71703">
<ele>103</ele>
<time>2018-07-20T02:29:17Z</time></trkpt>
<trkpt lat="52.37374" lon="-1.71842">
<ele>103</ele>
<time>2018-07-20T02:30:32Z</time></trkpt>
<trkpt lat="52.37464" lon="-1.71672">
<ele>102</ele>
<time>2018-07-20T02:32:22Z</time></trkpt>
<trkpt lat="52.37514" lon="-1.71642">
<ele>102</ele>
<time>2018-07-20T02:33:05Z</time></trkpt>
<trkpt lat="52.37564" lon="-1.7159">
<ele>103</ele>
<time>2018-07-20T02:33:52Z</time></trkpt>
<trkpt lat="52.37794" lon="-1.71578">
<ele>104</ele>
<time>2018-07-20T02:36:57Z</time></trkpt>
<trkpt lat="52.37891" lon="-1.71521">
<ele>104</ele>
<time>2018-07-20T02:38:20Z</time></trkpt>
<trkpt lat="52.37969" lon="-1.71505">
<ele>107</ele>
<time>2018-07-20T02:39:23Z</time></trkpt>
<trkpt lat="52.38094" lon="-1.7146">
<ele>113</ele>
<time>2018-07-20T02:41:05Z</time></trkpt>
<trkpt lat="52.38145" lon="-1.71437">
<ele>113</ele>
<time>2018-07-20T02:41:47Z</time></trkpt>
<trkpt lat="52.38176" lon="-1.71414">
<ele>114</ele>
<time>2018-07-20T02:42:15Z</time></trkpt>
<trkpt lat="52.38185" lon="-1.71424">
<ele>114</ele>
<time>2018-07-20T02:42:23Z</time></trkpt>
<trkpt lat="52.38339" lon="-1.71493">
<ele>118</ele>
<time>2018-07-20T02:44:31Z</time></trkpt>
<trkpt lat="52.38393" lon="-1.71548">
<ele>120</ele>
<time>2018-07-20T02:45:22Z</time></trkpt>
<trkpt lat="52.38444" lon="-1.71636">
<ele>120</ele>
<time>2018-07-20T02:46:22Z</time></trkpt>
<trkpt lat="52.38496" lon="-1.71805">
<ele>122</ele>
<time>2018-07-20T02:47:54Z</time></trkpt>
<trkpt lat="52.38526" lon="-1.71856">
<ele>122</ele>
<time>2018-07-20T02:48:29Z</time></trkpt>
<trkpt lat="52.38591" lon="-1.71921">
<ele>123</ele>
<time>2018-07-20T02:49:30Z</time></trkpt>
<trkpt lat="52.38693" lon="-1.71907">
<ele>119</ele>
<time>2018-07-20T02:50:52Z</time></trkpt>
<trkpt lat="52.38715" lon="-1.71912">
<ele>119</ele>
<time>2018-07-20T02:51:10Z</time></trkpt>
<trkpt lat="52.38763" lon="-1.7194">
<ele>120</ele>
<time>2018-07-20T02:51:51Z</time></trkpt>
<trkpt lat="52.38881" lon="-1.71948">
<ele>120</ele>
<time>2018-07-20T02:53:25Z</time></trkpt>
<trkpt lat="52.38979" lon="-1.7184">
<ele>116</ele>
<time>2018-07-20T02:55:00Z</time></trkpt>
<trkpt lat="52.3902" lon="-1.71812">
<ele>115</ele>
<time>2018-07-20T02:55:36Z</time></trkpt>
<trkpt lat="52.39066" lon="-1.71794">
<ele>114</ele>
<time>2018-07-20T02:56:14Z</time></trkpt>
<trkpt lat="52.39105" lon="-1.71759">
<ele>113</ele>
<time>2018-07-20T02:56:49Z</time></trkpt>
<trkpt lat="52.39128" lon="-1.71718">
<ele>111</ele>
<time>2018-07-20T02:57:16Z</time></trkpt>
<trkpt lat="52.39171" lon="-1.71587">
<ele>108</ele>
<time>2018-07-20T02:58:29Z</time></trkpt>
<trkpt lat="52.39196" lon="-1.71545">
<ele>106</ele>
<time>2018-07-20T02:58:58Z</time></trkpt>
<trkpt lat="52.3921" lon="-1.71535">
<ele>106</ele>
<time>2018-07-20T02:59:10Z</time></trkpt>
<trkpt lat="52.39284" lon="-1.71517">
<ele>105</ele>
<time>2018-07-20T03:00:10Z</time></trkpt>
<trkpt lat="52.39299" lon="-1.71505">
<ele>105</ele>
<time>2018-07-20T03:00:23Z</time></trkpt>
<trkpt lat="52.39308" lon="-1.71481">
<ele>104</ele>
<time>2018-07-20T03:00:37Z</time></trkpt>
<trkpt lat="52.39312" lon="-1.71337">
<ele>103</ele>
<time>2018-07-20T03:01:48Z</time></trkpt>
<trkpt lat="52.39267" lon="-1.71092">
<ele>100</ele>
<time>2018-07-20T03:03:53Z</time></trkpt>
<trkpt lat="52.39309" lon="-1.70969">
<ele>100</ele>
<time>2018-07-20T03:05:02Z</time></trkpt>
<trkpt lat="52.39415" lon="-1.70865">
<ele>99</ele>
<time>2018-07-20T03:06:41Z</time></trkpt>
<trkpt lat="52.39424" lon="-1.70841">
<ele>99</ele>
<time>2018-07-20T03:06:55Z</time></trkpt>
<trkpt lat="52.39438" lon="-1.70696">
<ele>101</ele>
<time>2018-07-20T03:08:06Z</time></trkpt>
<trkpt lat="52.39411" lon="-1.7023">
<ele>108</ele>
<time>2018-07-20T03:11:55Z</time></trkpt>
<trkpt lat="52.39413" lon="-1.70077">
<ele>110</ele>
<time>2018-07-20T03:13:10Z</time></trkpt>
<trkpt lat="52.39502" lon="-1.70099">
<ele>110</ele>
<time>2018-07-20T03:14:22Z</time></trkpt>
<trkpt lat="52.39674" lon="-1.70194">
<ele>105</ele>
<time>2018-07-20T03:16:48Z</time></trkpt>
<trkpt lat="52.39779" lon="-1.70221">
<ele>102</ele>
<time>2018-07-20T03:18:13Z</time></trkpt>
<trkpt lat="52.39823" lon="-1.70225">
<ele>102</ele>
<time>2018-07-20T03:18:48Z</time></trkpt>
<trkpt lat="52.39841" lon="-1.70212">
<ele>103</ele>
<time>2018-07-20T03:19:04Z</time></trkpt>
<trkpt lat="52.39881" lon="-1.70158">
<ele>104</ele>
<time>2018-07-20T03:19:46Z</time></trkpt>
<trkpt lat="52.39921" lon="-1.70087">
<ele>107</ele>
<time>2018-07-20T03:20:33Z</time></trkpt>
<trkpt lat="52.40027" lon="-1.69944">
<ele>117</ele>
<time>2018-07-20T03:22:23Z</time></trkpt>
<trkpt lat="52.40105" lon="-1.69857">
<ele>120</ele>
<time>2018-07-20T03:23:39Z</time></trkpt>
<trkpt lat="52.40031" lon="-1.69698">
<ele>121</ele>
<time>2018-07-20T03:25:16Z</time></trkpt>
<trkpt lat="52.40016" lon="-1.69629">
<ele>119</ele>
<time>2018-07-20T03:25:52Z</time></trkpt>
<trkpt lat="52.40018" lon="-1.69538">
<ele>116</ele>
<time>2018-07-20T03:26:37Z</time></trkpt>
<trkpt lat="52.40046" lon="-1.69226">
<ele>107</ele>
<time>2018-07-20T03:29:11Z</time></trkpt>
<trkpt lat="52.40073" lon="-1.69026">
<ele>106</ele>
<time>2018-07-20T03:30:51Z</time></trkpt>
<trkpt lat="52.40087" lon="-1.68974">
<ele>106</ele>
<time>2018-07-20T03:31:19Z</time></trkpt>
<trkpt lat="52.40116" lon="-1.68911">
<ele>104</ele>
<time>2018-07-20T03:31:57Z</time></trkpt>
<trkpt lat="52.40132" lon="-1.6881">
<ele>99</ele>
<time>2018-07-20T03:32:49Z</time></trkpt>
<trkpt lat="52.40308" lon="-1.68373">
<ele>93</ele>
<time>2018-07-20T03:37:05Z</time></trkpt>
<trkpt lat="52.40317" lon="-1.6822">
<ele>93</ele>
<time>2018-07-20T03:38:20Z</time></trkpt>
<trkpt lat="52.40313" lon="-1.68161">
<ele>93</ele>
<time>2018-07-20T03:38:49Z</time></trkpt>
<trkpt lat="52.40285" lon="-1.68016">
<ele>95</ele>
<time>2018-07-20T03:40:03Z</time></trkpt>
<trkpt lat="52.40286" lon="-1.67902">
<ele>96</ele>
<time>2018-07-20T03:40:59Z</time></trkpt>
<trkpt lat="52.40249" lon="-1.67735">
<ele>99</ele>
<time>2018-07-20T03:42:26Z</time></trkpt>
<trkpt lat="52.40242" lon="-1.67657">
<ele>103</ele>
<time>2018-07-20T03:43:04Z</time></trkpt>
<trkpt lat="52.40174" lon="-1.67453">
<ele>111</ele>
<time>2018-07-20T03:44:58Z</time></trkpt>
<trkpt lat="52.40172" lon="-1.67393">
<ele>112</ele>
<time>2018-07-20T03:45:27Z</time></trkpt>
<trkpt lat="52.4025" lon="-1.67176">
<ele>112</ele>
<time>2018-07-20T03:47:31Z</time></trkpt>
<trkpt lat="52.40409" lon="-1.66893">
<ele>101</ele>
<time>2018-07-20T03:50:39Z</time></trkpt>
<trkpt lat="52.4046" lon="-1.66626">
<ele>103</ele>
<time>2018-07-20T03:52:55Z</time></trkpt>
<trkpt lat="52.40482" lon="-1.664">
<ele>106</ele>
<time>2018-07-20T03:54:47Z</time></trkpt>
<trkpt lat="52.4046" lon="-1.66311">
<ele>108</ele>
<time>2018-07-20T03:55:34Z</time></trkpt>
<trkpt lat="52.40385" lon="-1.66192">
<ele>109</ele>
<time>2018-07-20T03:56:58Z</time></trkpt>
<trkpt lat="52.40343" lon="-1.66106">
<ele>111</ele>
<time>2018-07-20T03:57:52Z</time></trkpt>
<trkpt lat="52.40325" lon="-1.66053">
<ele>112</ele>
<time>2018-07-20T03:58:22Z</time></trkpt>
<trkpt lat="52.40304" lon="-1.65938">
<ele>112</ele>
<time>2018-07-20T03:59:20Z</time></trkpt>
<trkpt lat="52.40234" lon="-1.66045">
<ele>115</ele>
<time>2018-07-20T04:00:37Z</time></trkpt>
<trkpt lat="52.40179" lon="-1.66103">
<ele>116</ele>
<time>2018-07-20T04:01:29Z</time></trkpt>
<trkpt lat="52.40078" lon="-1.66246">
<ele>118</ele>
<time>2018-07-20T04:03:16Z</time></trkpt>
<trkpt lat="52.3996" lon="-1.66134">
<ele>114</ele>
<time>2018-07-20T04:05:06Z</time></trkpt>
<trkpt lat="52.39854" lon="-1.65989">
<ele>119</ele>
<time>2018-07-20T04:06:56Z</time></trkpt>
<trkpt lat="52.39769" lon="-1.65692">
<ele>125</ele>
<time>2018-07-20T04:09:37Z</time></trkpt>
<trkpt lat="52.39803" lon="-1.65462">
<ele>126</ele>
<time>2018-07-20T04:11:32Z</time></trkpt>
<trkpt lat="52.39708" lon="-1.65395">
<ele>126</ele>
<time>2018-07-20T04:12:55Z</time></trkpt>
<trkpt lat="52.39712" lon="-1.65379">
<ele>126</ele>
<time>2018-07-20T04:13:04Z</time></trkpt>
<trkpt lat="52.39853" lon="-1.65152">
<ele>124</ele>
<time>2018-07-20T04:15:42Z</time></trkpt>
<trkpt lat="52.39884" lon="-1.65115">
<ele>124</ele>
<time>2018-07-20T04:16:13Z</time></trkpt>
<trkpt lat="52.39903" lon="-1.65106">
<ele>123</ele>
<time>2018-07-20T04:16:29Z</time></trkpt>
<trkpt lat="52.39911" lon="-1.65084">
<ele>123</ele>
<time>2018-07-20T04:16:41Z</time></trkpt>
<trkpt lat="52.3988" lon="-1.64959">
<ele>120</ele>
<time>2018-07-20T04:17:47Z</time></trkpt>
<trkpt lat="52.3978" lon="-1.64732">
<ele>117</ele>
<time>2018-07-20T04:20:04Z</time></trkpt>
<trkpt lat="52.39647" lon="-1.6451">
<ele>116</ele>
<time>2018-07-20T04:22:36Z</time></trkpt>
<trkpt lat="52.39494" lon="-1.64307">
<ele>115</ele>
<time>2018-07-20T04:25:14Z</time></trkpt>
<trkpt lat="52.3951" lon="-1.64245">
<ele>114</ele>
<time>2018-07-20T04:25:47Z</time></trkpt>
<trkpt lat="52.39544" lon="-1.64202">
<ele>113</ele>
<time>2018-07-20T04:26:22Z</time></trkpt>
<trkpt lat="52.39664" lon="-1.63983">
<ele>113</ele>
<time>2018-07-20T04:28:46Z</time></trkpt>
<trkpt lat="52.39683" lon="-1.63901">
<ele>115</ele>
<time>2018-07-20T04:29:28Z</time></trkpt>
<trkpt lat="52.39686" lon="-1.63801">
<ele>118</ele>
<time>2018-07-20T04:30:17Z</time></trkpt>
<trkpt lat="52.39679" lon="-1.63745">
<ele>119</ele>
<time>2018-07-20T04:30:45Z</time></trkpt>
<trkpt lat="52.39595" lon="-1.63586">
<ele>120</ele>
<time>2018-07-20T04:32:28Z</time></trkpt>
<trkpt lat="52.39564" lon="-1.63458">
<ele>119</ele>
<time>2018-07-20T04:33:36Z</time></trkpt>
<trkpt lat="52.3955" lon="-1.63373">
<ele>120</ele>
<time>2018-07-20T04:34:19Z</time></trkpt>
<trkpt lat="52.39549" lon="-1.63253">
<ele>124</ele>
<time>2018-07-20T04:35:17Z</time></trkpt>
<trkpt lat="52.39536" lon="-1.63105">
<ele>128</ele>
<time>2018-07-20T04:36:30Z</time></trkpt>
<trkpt lat="52.39542" lon="-1.63004">
<ele>127</ele>
<time>2018-07-20T04:37:20Z</time></trkpt>
<trkpt lat="52.39588" lon="-1.62799">
<ele>128</ele>
<time>2018-07-20T04:39:07Z</time></trkpt>
<trkpt lat="52.39612" lon="-1.62729">
<ele>129</ele>
<time>2018-07-20T04:39:46Z</time></trkpt>
<trkpt lat="52.39623" lon="-1.62662">
<ele>129</ele>
<time>2018-07-20T04:40:20Z</time></trkpt>
<trkpt lat="52.39625" lon="-1.6245">
<ele>124</ele>
<time>2018-07-20T04:42:04Z</time></trkpt>
<trkpt lat="52.3963" lon="-1.62423">
<ele>124</ele>
<time>2018-07-20T04:42:18Z</time></trkpt>
<trkpt lat="52.39673" lon="-1.62341">
<ele>123</ele>
<time>2018-07-20T04:43:10Z</time></trkpt>
<trkpt lat="52.39657" lon="-1.62328">
<ele>123</ele>
<time>2018-07-20T04:43:25Z</time></trkpt>
<trkpt lat="52.39619" lon="-1.62325">
<ele>123</ele>
<time>2018-07-20T04:43:55Z</time></trkpt>
<trkpt lat="52.3959" lon="-1.62304">
<ele>123</ele>
<time>2018-07-20T04:44:21Z</time></trkpt>
<trkpt lat="52.39211" lon="-1.61948">
<ele>130</ele>
<time>2018-07-20T04:50:11Z</time></trkpt>
<trkpt lat="52.39162" lon="-1.61894">
<ele>131</ele>
<time>2018-07-20T04:50:58Z</time></trkpt>
<trkpt lat="52.38994" lon="-1.61661">
<ele>132</ele>
<time>2018-07-20T04:53:55Z</time></trkpt>
<trkpt lat="52.38794" lon="-1.61339">
<ele>126</ele>
<time>2018-07-20T04:57:39Z</time></trkpt>
<trkpt lat="52.38722" lon="-1.61242">
<ele>124</ele>
<time>2018-07-20T04:58:54Z</time></trkpt>
<trkpt lat="52.38654" lon="-1.61174">
<ele>124</ele>
<time>2018-07-20T04:59:58Z</time></trkpt>
<trkpt lat="52.38493" lon="-1.61076">
<ele>128</ele>
<time>2018-07-20T05:02:15Z</time></trkpt>
<trkpt lat="52.38319" lon="-1.60939">
<ele>134</ele>
<time>2018-07-20T05:04:50Z</time></trkpt>
<trkpt lat="52.38164" lon="-1.60748">
<ele>132</ele>
<time>2018-07-20T05:07:26Z</time></trkpt>
<trkpt lat="52.38149" lon="-1.60723">
<ele>132</ele>
<time>2018-07-20T05:07:43Z</time></trkpt>
<trkpt lat="52.38106" lon="-1.60599">
<ele>130</ele>
<time>2018-07-20T05:08:53Z</time></trkpt>
<trkpt lat="52.38064" lon="-1.60616">
<ele>131</ele>
<time>2018-07-20T05:09:27Z</time></trkpt>
<trkpt lat="52.37902" lon="-1.60378">
<ele>121</ele>
<time>2018-07-20T05:12:22Z</time></trkpt>
<trkpt lat="52.37469" lon="-1.59853">
<ele>111</ele>
<time>2018-07-20T05:19:33Z</time></trkpt>
<trkpt lat="52.37361" lon="-1.59681">
<ele>107</ele>
<time>2018-07-20T05:21:34Z</time></trkpt>
<trkpt lat="52.37222" lon="-1.59396">
<ele>104</ele>
<time>2018-07-20T05:24:33Z</time></trkpt>
<trkpt lat="52.36305" lon="-1.57395">
<ele>96</ele>
<time>2018-07-20T05:44:57Z</time></trkpt>
<trkpt lat="52.36062" lon="-1.56882">
<ele>85</ele>
<time>2018-07-20T05:50:15Z</time></trkpt>
<trkpt lat="52.35877" lon="-1.56465">
<ele>83</ele>
<time>2018-07-20T05:54:27Z</time></trkpt>
<trkpt lat="52.3583" lon="-1.56397">
<ele>86</ele>
<time>2018-07-20T05:55:17Z</time></trkpt>
<trkpt lat="52.35736" lon="-1.56317">
<ele>91</ele>
<time>2018-07-20T05:56:42Z</time></trkpt>
<trkpt lat="52.35698" lon="-1.56301">
<ele>92</ele>
<time>2018-07-20T05:57:14Z</time></trkpt>
<trkpt lat="52.35629" lon="-1.56288">
<ele>93</ele>
<time>2018-07-20T05:58:09Z</time></trkpt>
<trkpt lat="52.3557" lon="-1.56286">
<ele>93</ele>
<time>2018-07-20T05:58:57Z</time></trkpt>
<trkpt lat="52.35308" lon="-1.56605">
<ele>82</ele>
<time>2018-07-20T06:03:18Z</time></trkpt>
<trkpt lat="52.35295" lon="-1.56649">
<ele>82</ele>
<time>2018-07-20T06:03:42Z</time></trkpt>
<trkpt lat="52.35265" lon="-1.56884">
<ele>80</ele>
<time>2018-07-20T06:05:40Z</time></trkpt>
<trkpt lat="52.35215" lon="-1.56975">
<ele>76</ele>
<time>2018-07-20T06:06:40Z</time></trkpt>
<trkpt lat="52.35162" lon="-1.56992">
<ele>75</ele>
<time>2018-07-20T06:07:23Z</time></trkpt>
<trkpt lat="52.35149" lon="-1.56989">
<ele>76</ele>
<time>2018-07-20T06:07:34Z</time></trkpt>
<trkpt lat="52.35142" lon="-1.57015">
<ele>76</ele>
<time>2018-07-20T06:07:48Z</time></trkpt>
<trkpt lat="52.35143" lon="-1.5713">
<ele>76</ele>
<time>2018-07-20T06:08:44Z</time></trkpt>
<trkpt lat="52.3512" lon="-1.57299">
<ele>77</ele>
<time>2018-07-20T06:10:09Z</time></trkpt>
<trkpt lat="52.35106" lon="-1.57356">
<ele>77</ele>
<time>2018-07-20T06:10:39Z</time></trkpt>
<trkpt lat="52.35089" lon="-1.57376">
<ele>77</ele>
<time>2018-07-20T06:10:55Z</time></trkpt>
<trkpt lat="52.35093" lon="-1.57415">
<ele>76</ele>
<time>2018-07-20T06:11:15Z</time></trkpt>
<trkpt lat="52.35084" lon="-1.57462">
<ele>76</ele>
<time>2018-07-20T06:11:39Z</time></trkpt>
<trkpt lat="52.35022" lon="-1.57591">
<ele>76</ele>
<time>2018-07-20T06:12:59Z</time></trkpt>
<trkpt lat="52.35027" lon="-1.57657">
<ele>77</ele>
<time>2018-07-20T06:13:32Z</time></trkpt>
<trkpt lat="52.34992" lon="-1.57691">
<ele>76</ele>
<time>2018-07-20T06:14:04Z</time></trkpt>
<trkpt lat="52.34976" lon="-1.57744">
<ele>77</ele>
<time>2018-07-20T06:14:33Z</time></trkpt>
<trkpt lat="52.34952" lon="-1.57769">
<ele>78</ele>
<time>2018-07-20T06:14:56Z</time></trkpt>
<trkpt lat="52.34861" lon="-1.57903">
<ele>79</ele>
<time>2018-07-20T06:16:34Z</time></trkpt>
<trkpt lat="52.34866" lon="-1.57958">
<ele>79</ele>
<time>2018-07-20T06:17:02Z</time></trkpt>
<trkpt lat="52.34876" lon="-1.57984">
<ele>79</ele>
<time>2018-07-20T06:17:17Z</time></trkpt>
<trkpt lat="52.35002" lon="-1.58101">
<ele>86</ele>
<time>2018-07-20T06:19:13Z</time></trkpt>
<trkpt lat="52.34976" lon="-1.58312">
<ele>91</ele>
<time>2018-07-20T06:20:58Z</time></trkpt>
<trkpt lat="52.34977" lon="-1.58532">
<ele>92</ele>
<time>2018-07-20T06:22:46Z</time></trkpt>
<trkpt lat="52.34946" lon="-1.58767">
<ele>89</ele>
<time>2018-07-20T06:24:43Z</time></trkpt>
<trkpt lat="52.34937" lon="-1.58806">
<ele>89</ele>
<time>2018-07-20T06:25:04Z</time></trkpt>
<trkpt lat="52.34888" lon="-1.58906">
<ele>84</ele>
<time>2018-07-20T06:26:07Z</time></trkpt>
<trkpt lat="52.34866" lon="-1.58998">
<ele>83</ele>
<time>2018-07-20T06:26:55Z</time></trkpt>
<trkpt lat="52.34835" lon="-1.59023">
<ele>83</ele>
<time>2018-07-20T06:27:23Z</time></trkpt>
<trkpt lat="52.34783" lon="-1.58991">
<ele>80</ele>
<time>2018-07-20T06:28:07Z</time></trkpt>
<trkpt lat="52.34721" lon="-1.58909">
<ele>82</ele>
<time>2018-07-20T06:29:11Z</time></trkpt>
<trkpt lat="52.34691" lon="-1.58842">
<ele>85</ele>
<time>2018-07-20T06:29:52Z</time></trkpt>
<trkpt lat="52.34667" lon="-1.58817">
<ele>86</ele>
<time>2018-07-20T06:30:15Z</time></trkpt>
<trkpt lat="52.34633" lon="-1.58805">
<ele>86</ele>
<time>2018-07-20T06:30:42Z</time></trkpt>
<trkpt lat="52.3461" lon="-1.58808">
<ele>86</ele>
<time>2018-07-20T06:31:01Z</time></trkpt>
<trkpt lat="52.34562" lon="-1.58836">
<ele>88</ele>
<time>2018-07-20T06:31:42Z</time></trkpt>
<trkpt lat="52.34551" lon="-1.58829">
<ele>87</ele>
<time>2018-07-20T06:31:51Z</time></trkpt>
<trkpt lat="52.34505" lon="-1.5865">
<ele>80</ele>
<time>2018-07-20T06:33:26Z</time></trkpt>
<trkpt lat="52.3449" lon="-1.58499">
<ele>81</ele>
<time>2018-07-20T06:34:41Z</time></trkpt>
<trkpt lat="52.34441" lon="-1.58515">
<ele>79</ele>
<time>2018-07-20T06:35:21Z</time></trkpt>
<trkpt lat="52.34366" lon="-1.58486">
<ele>79</ele>
<time>2018-07-20T06:36:23Z</time></trkpt>
<trkpt lat="52.34235" lon="-1.58452">
<ele>79</ele>
<time>2018-07-20T06:38:09Z</time></trkpt>
<trkpt lat="52.34193" lon="-1.58422">
<ele>79</ele>
<time>2018-07-20T06:38:46Z</time></trkpt>
<trkpt lat="52.34135" lon="-1.58362">
<ele>79</ele>
<time>2018-07-20T06:39:41Z</time></trkpt>
<trkpt lat="52.3412" lon="-1.58358">
<ele>79</ele>
<time>2018-07-20T06:39:53Z</time></trkpt>
<trkpt lat="52.34096" lon="-1.58361">
<ele>80</ele>
<time>2018-07-20T06:40:13Z</time></trkpt>
<trkpt lat="52.34093" lon="-1.58464">
<ele>78</ele>
<time>2018-07-20T06:41:03Z</time></trkpt>
<trkpt lat="52.34011" lon="-1.58569">
<ele>78</ele>
<time>2018-07-20T06:42:27Z</time></trkpt>
<trkpt lat="52.33872" lon="-1.589">
<ele>78</ele>
<time>2018-07-20T06:45:43Z</time></trkpt>
<trkpt lat="52.33865" lon="-1.58903">
<ele>78</ele>
<time>2018-07-20T06:45:49Z</time></trkpt>
<trkpt lat="52.33512" lon="-1.58809">
<ele>87</ele>
<time>2018-07-20T06:50:36Z</time></trkpt>
<trkpt lat="52.33431" lon="-1.58634">
<ele>92</ele>
<time>2018-07-20T06:52:23Z</time></trkpt>
<trkpt lat="52.33328" lon="-1.58461">
<ele>93</ele>
<time>2018-07-20T06:54:21Z</time></trkpt>
<trkpt lat="52.33228" lon="-1.58259">
<ele>90</ele>
<time>2018-07-20T06:56:29Z</time></trkpt>
<trkpt lat="52.33143" lon="-1.58321">
<ele>90</ele>
<time>2018-07-20T06:57:43Z</time></trkpt>
<trkpt lat="52.33038" lon="-1.58379">
<ele>85</ele>
<time>2018-07-20T06:59:12Z</time></trkpt>
<trkpt lat="52.32846" lon="-1.58519">
<ele>76</ele>
<time>2018-07-20T07:02:01Z</time></trkpt>
<trkpt lat="52.32808" lon="-1.58536">
<ele>77</ele>
<time>2018-07-20T07:02:32Z</time></trkpt>
<trkpt lat="52.32667" lon="-1.5857">
<ele>88</ele>
<time>2018-07-20T07:04:27Z</time></trkpt>
<trkpt lat="52.32591" lon="-1.58616">
<ele>86</ele>
<time>2018-07-20T07:05:31Z</time></trkpt>
<trkpt lat="52.32548" lon="-1.58673">
<ele>85</ele>
<time>2018-07-20T07:06:16Z</time></trkpt>
<trkpt lat="52.32497" lon="-1.58764">
<ele>86</ele>
<time>2018-07-20T07:07:16Z</time></trkpt>
<trkpt lat="52.32463" lon="-1.58862">
<ele>86</ele>
<time>2018-07-20T07:08:12Z</time></trkpt>
<trkpt lat="52.32409" lon="-1.59065">
<ele>86</ele>
<time>2018-07-20T07:10:00Z</time></trkpt>
<trkpt lat="52.32294" lon="-1.5878">
<ele>86</ele>
<time>2018-07-20T07:12:47Z</time></trkpt>
<trkpt lat="52.32202" lon="-1.58522">
<ele>86</ele>
<time>2018-07-20T07:15:14Z</time></trkpt>
<trkpt lat="52.32127" lon="-1.58282">
<ele>89</ele>
<time>2018-07-20T07:17:26Z</time></trkpt>
<trkpt lat="52.321" lon="-1.58225">
<ele>89</ele>
<time>2018-07-20T07:18:01Z</time></trkpt>
<trkpt lat="52.32055" lon="-1.58151">
<ele>89</ele>
<time>2018-07-20T07:18:52Z</time></trkpt>
<trkpt lat="52.32016" lon="-1.58102">
<ele>89</ele>
<time>2018-07-20T07:19:32Z</time></trkpt>
<trkpt lat="52.31894" lon="-1.57977">
<ele>92</ele>
<time>2018-07-20T07:21:27Z</time></trkpt>
<trkpt lat="52.31849" lon="-1.57908">
<ele>92</ele>
<time>2018-07-20T07:22:16Z</time></trkpt>
<trkpt lat="52.31837" lon="-1.5786">
<ele>89</ele>
<time>2018-07-20T07:22:42Z</time></trkpt>
<trkpt lat="52.31831" lon="-1.57774">
<ele>86</ele>
<time>2018-07-20T07:23:24Z</time></trkpt>
<trkpt lat="52.31838" lon="-1.5768">
<ele>84</ele>
<time>2018-07-20T07:24:11Z</time></trkpt>
<trkpt lat="52.31547" lon="-1.57668">
<ele>78</ele>
<time>2018-07-20T07:28:04Z</time></trkpt>
<trkpt lat="52.31447" lon="-1.57626">
<ele>72</ele>
<time>2018-07-20T07:29:27Z</time></trkpt>
<trkpt lat="52.31394" lon="-1.57614">
<ele>69</ele>
<time>2018-07-20T07:30:09Z</time></trkpt>
<trkpt lat="52.31372" lon="-1.57614">
<ele>67</ele>
<time>2018-07-20T07:30:27Z</time></trkpt>
<trkpt lat="52.31332" lon="-1.57632">
<ele>65</ele>
<time>2018-07-20T07:31:00Z</time></trkpt>
<trkpt lat="52.31321" lon="-1.57614">
<ele>65</ele>
<time>2018-07-20T07:31:13Z</time></trkpt>
<trkpt lat="52.31307" lon="-1.57626">
<ele>65</ele>
<time>2018-07-20T07:31:26Z</time></trkpt>
<trkpt lat="52.31284" lon="-1.57615">
<ele>65</ele>
<time>2018-07-20T07:31:45Z</time></trkpt>
<trkpt lat="52.3112" lon="-1.57589">
<ele>65</ele>
<time>2018-07-20T07:33:57Z</time></trkpt>
<trkpt lat="52.30861" lon="-1.57508">
<ele>59</ele>
<time>2018-07-20T07:37:28Z</time></trkpt>
<trkpt lat="52.30819" lon="-1.57491">
<ele>59</ele>
<time>2018-07-20T07:38:03Z</time></trkpt>
<trkpt lat="52.30777" lon="-1.57457">
<ele>59</ele>
<time>2018-07-20T07:38:40Z</time></trkpt>
<trkpt lat="52.30734" lon="-1.57344">
<ele>58</ele>
<time>2018-07-20T07:39:46Z</time></trkpt>
<trkpt lat="52.30702" lon="-1.57324">
<ele>56</ele>
<time>2018-07-20T07:40:13Z</time></trkpt>
<trkpt lat="52.30621" lon="-1.57358">
<ele>56</ele>
<time>2018-07-20T07:41:20Z</time></trkpt>
<trkpt lat="52.30487" lon="-1.57447">
<ele>56</ele>
<time>2018-07-20T07:43:16Z</time></trkpt>
<trkpt lat="52.30366" lon="-1.57504">
<ele>56</ele>
<time>2018-07-20T07:44:57Z</time></trkpt>
<trkpt lat="52.3031" lon="-1.57522">
<ele>55</ele>
<time>2018-07-20T07:45:43Z</time></trkpt>
<trkpt lat="52.30206" lon="-1.57537">
<ele>56</ele>
<time>2018-07-20T07:47:06Z</time></trkpt>
<trkpt lat="52.29948" lon="-1.57543">
<ele>58</ele>
<time>2018-07-20T07:50:33Z</time></trkpt>
<trkpt lat="52.29753" lon="-1.576">
<ele>58</ele>
<time>2018-07-20T07:53:12Z</time></trkpt>
<trkpt lat="52.29425" lon="-1.57644">
<ele>58</ele>
<time>2018-07-20T07:57:36Z</time></trkpt>
<trkpt lat="52.29404" lon="-1.57629">
<ele>58</ele>
<time>2018-07-20T07:57:54Z</time></trkpt>
<trkpt lat="52.29367" lon="-1.57566">
<ele>58</ele>
<time>2018-07-20T07:58:37Z</time></trkpt>
<trkpt lat="52.29341" lon="-1.57599">
<ele>56</ele>
<time>2018-07-20T07:59:03Z</time></trkpt>
<trkpt lat="52.29324" lon="-1.576">
<ele>56</ele>
<time>2018-07-20T07:59:17Z</time></trkpt>
<trkpt lat="52.29185" lon="-1.57486">
<ele>54</ele>
<time>2018-07-20T08:01:22Z</time></trkpt>
<trkpt lat="52.29123" lon="-1.57458">
<ele>54</ele>
<time>2018-07-20T08:02:13Z</time></trkpt>
<trkpt lat="52.29089" lon="-1.57413">
<ele>54</ele>
<time>2018-07-20T08:02:48Z</time></trkpt>
<trkpt lat="52.2907" lon="-1.57365">
<ele>54</ele>
<time>2018-07-20T08:03:16Z</time></trkpt>
<trkpt lat="52.28955" lon="-1.56948">
<ele>59</ele>
<time>2018-07-20T08:07:00Z</time></trkpt>
<trkpt lat="52.28936" lon="-1.56945">
<ele>58</ele>
<time>2018-07-20T08:07:16Z</time></trkpt>
<trkpt lat="52.28859" lon="-1.56905">
<ele>57</ele>
<time>2018-07-20T08:08:20Z</time></trkpt>
<trkpt lat="52.2879" lon="-1.56899">
<ele>56</ele>
<time>2018-07-20T08:09:16Z</time></trkpt>
<trkpt lat="52.2886" lon="-1.57179">
<ele>57</ele>
<time>2018-07-20T08:11:44Z</time></trkpt>
<trkpt lat="52.28833" lon="-1.57272">
<ele>56</ele>
<time>2018-07-20T08:12:35Z</time></trkpt>
<trkpt lat="52.28807" lon="-1.5732">
<ele>56</ele>
<time>2018-07-20T08:13:06Z</time></trkpt>
<trkpt lat="52.28773" lon="-1.57361">
<ele>55</ele>
<time>2018-07-20T08:13:40Z</time></trkpt>
<trkpt lat="52.28582" lon="-1.5754">
<ele>54</ele>
<time>2018-07-20T08:16:36Z</time></trkpt>
<trkpt lat="52.28526" lon="-1.57611">
<ele>54</ele>
<time>2018-07-20T08:17:33Z</time></trkpt>
<trkpt lat="52.28629" lon="-1.57743">
<ele>57</ele>
<time>2018-07-20T08:19:18Z</time></trkpt>
<trkpt lat="52.28632" lon="-1.57997">
<ele>55</ele>
<time>2018-07-20T08:21:23Z</time></trkpt>
<trkpt lat="52.28671" lon="-1.57982">
<ele>56</ele>
<time>2018-07-20T08:21:55Z</time></trkpt>
<trkpt lat="52.28685" lon="-1.58009">
<ele>56</ele>
<time>2018-07-20T08:22:12Z</time></trkpt>
<trkpt lat="52.28735" lon="-1.58061">
<ele>55</ele>
<time>2018-07-20T08:23:00Z</time></trkpt>
<trkpt lat="52.28839" lon="-1.58113">
<ele>56</ele>
<time>2018-07-20T08:24:27Z</time></trkpt>
<trkpt lat="52.28999" lon="-1.58221">
<ele>57</ele>
<time>2018-07-20T08:26:46Z</time></trkpt>
<trkpt lat="52.29126" lon="-1.58356">
<ele>56</ele>
<time>2018-07-20T08:28:47Z</time></trkpt>
<trkpt lat="52.29141" lon="-1.58397">
<ele>56</ele>
<time>2018-07-20T08:29:10Z</time></trkpt>
<trkpt lat="52.29139" lon="-1.5843">
<ele>55</ele>
<time>2018-07-20T08:29:27Z</time></trkpt>
<trkpt lat="52.291" lon="-1.58496">
<ele>55</ele>
<time>2018-07-20T08:30:12Z</time></trkpt>
<trkpt lat="52.29089" lon="-1.58537">
<ele>55</ele>
<time>2018-07-20T08:30:34Z</time></trkpt>
<trkpt lat="52.29079" lon="-1.59079">
<ele>58</ele>
<time>2018-07-20T08:34:59Z</time></trkpt>
<trkpt lat="52.29062" lon="-1.59155">
<ele>59</ele>
<time>2018-07-20T08:35:39Z</time></trkpt>
<trkpt lat="52.28951" lon="-1.59343">
<ele>62</ele>
<time>2018-07-20T08:37:47Z</time></trkpt>
<trkpt lat="52.28908" lon="-1.59386">
<ele>62</ele>
<time>2018-07-20T08:38:28Z</time></trkpt>
<trkpt lat="52.2888" lon="-1.59325">
<ele>61</ele>
<time>2018-07-20T08:39:05Z</time></trkpt>
<trkpt lat="52.28767" lon="-1.5947">
<ele>59</ele>
<time>2018-07-20T08:41:00Z</time></trkpt>
<trkpt lat="52.2877" lon="-1.59533">
<ele>58</ele>
<time>2018-07-20T08:41:31Z</time></trkpt>
<trkpt lat="52.28902" lon="-1.59836">
<ele>60</ele>
<time>2018-07-20T08:44:33Z</time></trkpt>
<trkpt lat="52.28896" lon="-1.59872">
<ele>59</ele>
<time>2018-07-20T08:44:52Z</time></trkpt>
<trkpt lat="52.28888" lon="-1.5988">
<ele>59</ele>
<time>2018-07-20T08:44:59Z</time></trkpt>
<trkpt lat="52.28775" lon="-1.59956">
<ele>59</ele>
<time>2018-07-20T08:46:37Z</time></trkpt>
<trkpt lat="52.28801" lon="-1.60065">
<ele>60</ele>
<time>2018-07-20T08:47:35Z</time></trkpt>
<trkpt lat="52.28812" lon="-1.60165">
<ele>60</ele>
<time>2018-07-20T08:48:24Z</time></trkpt>
<trkpt lat="52.28827" lon="-1.60203">
<ele>61</ele>
<time>2018-07-20T08:48:47Z</time></trkpt>
<trkpt lat="52.2882" lon="-1.60218">
<ele>61</ele>
<time>2018-07-20T08:48:56Z</time></trkpt>
<trkpt lat="52.28825" lon="-1.60232">
<ele>61</ele>
<time>2018-07-20T08:49:04Z</time></trkpt>
<trkpt lat="52.28813" lon="-1.6026">
<ele>61</ele>
<time>2018-07-20T08:49:20Z</time></trkpt>
<trkpt lat="52.28804" lon="-1.60364">
<ele>62</ele>
<time>2018-07-20T08:50:12Z</time></trkpt>
<trkpt lat="52.287883" lon="-1.603883">
<ele>62</ele>
<time>2018-07-20T08:50:29Z</time></trkpt>
<trkpt lat="52.2876" lon="-1.6039">
<ele>61</ele>
<time>2018-07-20T08:50:52Z</time></trkpt>
<trkpt lat="52.28735" lon="-1.604016">
<ele>62</ele>
<time>2018-07-20T08:51:13Z</time></trkpt>
<trkpt lat="52.287166" lon="-1.604483">
<ele>61</ele>
<time>2018-07-20T08:51:40Z</time></trkpt>
<trkpt lat="52.286466" lon="-1.60785">
<ele>60</ele>
<time>2018-07-20T08:54:34Z</time></trkpt>
<trkpt lat="52.28655" lon="-1.607916">
<ele>60</ele>
<time>2018-07-20T08:54:42Z</time></trkpt>
<trkpt lat="52.28685" lon="-1.607933">
<ele>60</ele>
<time>2018-07-20T08:55:06Z</time></trkpt>
<trkpt lat="52.286983" lon="-1.608133">
<ele>60</ele>
<time>2018-07-20T08:55:20Z</time></trkpt>
<trkpt lat="52.286966" lon="-1.610266">
<ele>63</ele>
<time>2018-07-20T08:57:05Z</time></trkpt>
<trkpt lat="52.2868" lon="-1.611133">
<ele>63</ele>
<time>2018-07-20T08:57:50Z</time></trkpt>
<trkpt lat="52.286866" lon="-1.61275">
<ele>65</ele>
<time>2018-07-20T08:59:09Z</time></trkpt>
<trkpt lat="52.286783" lon="-1.613933">
<ele>65</ele>
<time>2018-07-20T09:00:07Z</time></trkpt>
<trkpt lat="52.28665" lon="-1.614233">
<ele>66</ele>
<time>2018-07-20T09:00:26Z</time></trkpt>
<trkpt lat="52.28605" lon="-1.61485">
<ele>66</ele>
<time>2018-07-20T09:01:22Z</time></trkpt>
<trkpt lat="52.285666" lon="-1.616833">
<ele>66</ele>
<time>2018-07-20T09:03:04Z</time></trkpt>
<trkpt lat="52.284966" lon="-1.618366">
<ele>66</ele>
<time>2018-07-20T09:04:38Z</time></trkpt>
<trkpt lat="52.284683" lon="-1.619183">
<ele>69</ele>
<time>2018-07-20T09:05:24Z</time></trkpt>
<trkpt lat="52.284516" lon="-1.621866">
<ele>72</ele>
<time>2018-07-20T09:07:36Z</time></trkpt>
<trkpt lat="52.284616" lon="-1.622866">
<ele>71</ele>
<time>2018-07-20T09:08:26Z</time></trkpt>
<trkpt lat="52.28445" lon="-1.623716">
<ele>71</ele>
<time>2018-07-20T09:09:10Z</time></trkpt>
<trkpt lat="52.2843" lon="-1.623966">
<ele>72</ele>
<time>2018-07-20T09:09:27Z</time></trkpt>
<trkpt lat="52.28295" lon="-1.62505">
<ele>78</ele>
<time>2018-07-20T09:11:28Z</time></trkpt>
<trkpt lat="52.28185" lon="-1.626566">
<ele>82</ele>
<time>2018-07-20T09:13:23Z</time></trkpt>
<trkpt lat="52.281" lon="-1.6274">
<ele>84</ele>
<time>2018-07-20T09:14:42Z</time></trkpt>
<trkpt lat="52.280216" lon="-1.627983">
<ele>87</ele>
<time>2018-07-20T09:15:51Z</time></trkpt>
<trkpt lat="52.2801" lon="-1.628216">
<ele>88</ele>
<time>2018-07-20T09:16:06Z</time></trkpt>
<trkpt lat="52.280083" lon="-1.628916">
<ele>89</ele>
<time>2018-07-20T09:16:40Z</time></trkpt>
<trkpt lat="52.280283" lon="-1.629783">
<ele>88</ele>
<time>2018-07-20T09:17:26Z</time></trkpt>
<trkpt lat="52.28045" lon="-1.631">
<ele>87</ele>
<time>2018-07-20T09:18:27Z</time></trkpt>
<trkpt lat="52.280366" lon="-1.631633">
<ele>86</ele>
<time>2018-07-20T09:18:59Z</time></trkpt>
<trkpt lat="52.278583" lon="-1.63165">
<ele>92</ele>
<time>2018-07-20T09:21:22Z</time></trkpt>
<trkpt lat="52.277376" lon="-1.631814">
<ele>93</ele>
<time>2018-07-20T09:22:59Z</time></trkpt>
<trkpt lat="52.276764" lon="-1.632045">
<ele>93</ele>
<time>2018-07-20T09:23:49Z</time></trkpt>
<trkpt lat="52.276272" lon="-1.631836">
<ele>92</ele>
<time>2018-07-20T09:24:30Z</time></trkpt>
<trkpt lat="52.275839" lon="-1.63142">
<ele>91</ele>
<time>2018-07-20T09:25:10Z</time></trkpt>
<trkpt lat="52.275283" lon="-1.630579">
<ele>89</ele>
<time>2018-07-20T09:26:11Z</time></trkpt>
<trkpt lat="52.274651" lon="-1.630724">
<ele>85</ele>
<time>2018-07-20T09:27:02Z</time></trkpt>
<trkpt lat="52.273909" lon="-1.630757">
<ele>81</ele>
<time>2018-07-20T09:28:02Z</time></trkpt>
<trkpt lat="52.272475" lon="-1.630688">
<ele>74</ele>
<time>2018-07-20T09:29:56Z</time></trkpt>
<trkpt lat="52.272241" lon="-1.632846">
<ele>69</ele>
<time>2018-07-20T09:31:44Z</time></trkpt>
<trkpt lat="52.272329" lon="-1.633948">
<ele>69</ele>
<time>2018-07-20T09:32:38Z</time></trkpt>
<trkpt lat="52.271826" lon="-1.634181">
<ele>69</ele>
<time>2018-07-20T09:33:20Z</time></trkpt>
<trkpt lat="52.271664" lon="-1.634191">
<ele>69</ele>
<time>2018-07-20T09:33:33Z</time></trkpt>
<trkpt lat="52.271602" lon="-1.63473">
<ele>70</ele>
<time>2018-07-20T09:34:00Z</time></trkpt>
<trkpt lat="52.271312" lon="-1.635911">
<ele>72</ele>
<time>2018-07-20T09:35:03Z</time></trkpt>
<trkpt lat="52.271161" lon="-1.637232">
<ele>78</ele>
<time>2018-07-20T09:36:09Z</time></trkpt>
<trkpt lat="52.27088" lon="-1.638679">
<ele>83</ele>
<time>2018-07-20T09:37:23Z</time></trkpt>
<trkpt lat="52.27086" lon="-1.639374">
<ele>84</ele>
<time>2018-07-20T09:37:57Z</time></trkpt>
<trkpt lat="52.271094" lon="-1.642093">
<ele>76</ele>
<time>2018-07-20T09:40:12Z</time></trkpt>
<trkpt lat="52.270939" lon="-1.644451">
<ele>73</ele>
<time>2018-07-20T09:42:08Z</time></trkpt>
<trkpt lat="52.270663" lon="-1.645252">
<ele>72</ele>
<time>2018-07-20T09:42:53Z</time></trkpt>
<trkpt lat="52.270138" lon="-1.646382">
<ele>73</ele>
<time>2018-07-20T09:44:03Z</time></trkpt>
<trkpt lat="52.269644" lon="-1.647796">
<ele>73</ele>
<time>2018-07-20T09:45:23Z</time></trkpt>
<trkpt lat="52.268553" lon="-1.65327">
<ele>76</ele>
<time>2018-07-20T09:50:05Z</time></trkpt>
<trkpt lat="52.268577" lon="-1.653984">
<ele>77</ele>
<time>2018-07-20T09:50:40Z</time></trkpt>
<trkpt lat="52.268847" lon="-1.656026">
<ele>79</ele>
<time>2018-07-20T09:52:23Z</time></trkpt>
<trkpt lat="52.268633" lon="-1.657705">
<ele>78</ele>
<time>2018-07-20T09:53:47Z</time></trkpt>
<trkpt lat="52.268643" lon="-1.659283">
<ele>81</ele>
<time>2018-07-20T09:55:04Z</time></trkpt>
<trkpt lat="52.268547" lon="-1.660792">
<ele>85</ele>
<time>2018-07-20T09:56:19Z</time></trkpt>
<trkpt lat="52.268609" lon="-1.661519">
<ele>86</ele>
<time>2018-07-20T09:56:55Z</time></trkpt>
<trkpt lat="52.269026" lon="-1.663857">
<ele>89</ele>
<time>2018-07-20T09:58:54Z</time></trkpt>
<trkpt lat="52.269056" lon="-1.664883">
<ele>91</ele>
<time>2018-07-20T09:59:44Z</time></trkpt>
<trkpt lat="52.268867" lon="-1.665933">
<ele>95</ele>
<time>2018-07-20T10:00:38Z</time></trkpt>
<trkpt lat="52.270804" lon="-1.665045">
<ele>88</ele>
<time>2018-07-20T10:03:19Z</time></trkpt>
<trkpt lat="52.271903" lon="-1.665111">
<ele>94</ele>
<time>2018-07-20T10:04:47Z</time></trkpt>
<trkpt lat="52.272386" lon="-1.664612">
<ele>94</ele>
<time>2018-07-20T10:05:33Z</time></trkpt>
<trkpt lat="52.272737" lon="-1.664479">
<ele>94</ele>
<time>2018-07-20T10:06:02Z</time></trkpt>
<trkpt lat="52.27286" lon="-1.664484">
<ele>93</ele>
<time>2018-07-20T10:06:12Z</time></trkpt>
<trkpt lat="52.273119" lon="-1.664666">
<ele>93</ele>
<time>2018-07-20T10:06:35Z</time></trkpt>
<trkpt lat="52.273425" lon="-1.664987">
<ele>93</ele>
<time>2018-07-20T10:07:04Z</time></trkpt>
<trkpt lat="52.273755" lon="-1.665207">
<ele>93</ele>
<time>2018-07-20T10:07:32Z</time></trkpt>
<trkpt lat="52.273877" lon="-1.664514">
<ele>92</ele>
<time>2018-07-20T10:08:08Z</time></trkpt>
<trkpt lat="52.274088" lon="-1.664499">
<ele>91</ele>
<time>2018-07-20T10:08:25Z</time></trkpt>
<trkpt lat="52.274537" lon="-1.664802">
<ele>93</ele>
<time>2018-07-20T10:09:04Z</time></trkpt>
<trkpt lat="52.275233" lon="-1.665533">
<ele>97</ele>
<time>2018-07-20T10:10:10Z</time></trkpt>
<trkpt lat="52.276066" lon="-1.665883">
<ele>100</ele>
<time>2018-07-20T10:11:19Z</time></trkpt>
<trkpt lat="52.276883" lon="-1.666516">
<ele>103</ele>
<time>2018-07-20T10:12:31Z</time></trkpt>
<trkpt lat="52.277383" lon="-1.66645">
<ele>106</ele>
<time>2018-07-20T10:13:11Z</time></trkpt>
<trkpt lat="52.27815" lon="-1.66665">
<ele>108</ele>
<time>2018-07-20T10:14:14Z</time></trkpt>
<trkpt lat="52.278933" lon="-1.666966">
<ele>110</ele>
<time>2018-07-20T10:15:18Z</time></trkpt>
<trkpt lat="52.279566" lon="-1.667333">
<ele>112</ele>
<time>2018-07-20T10:16:12Z</time></trkpt>
<trkpt lat="52.27975" lon="-1.66735">
<ele>112</ele>
<time>2018-07-20T10:16:27Z</time></trkpt>
<trkpt lat="52.2801" lon="-1.6672">
<ele>113</ele>
<time>2018-07-20T10:16:56Z</time></trkpt>
<trkpt lat="52.280783" lon="-1.666383">
<ele>114</ele>
<time>2018-07-20T10:18:04Z</time></trkpt>
<trkpt lat="52.281016" lon="-1.66635">
<ele>114</ele>
<time>2018-07-20T10:18:23Z</time></trkpt>
<trkpt lat="52.28125" lon="-1.666416">
<ele>114</ele>
<time>2018-07-20T10:18:42Z</time></trkpt>
<trkpt lat="52.282266" lon="-1.666866">
<ele>120</ele>
<time>2018-07-20T10:20:06Z</time></trkpt>
<trkpt lat="52.28315" lon="-1.666183">
<ele>117</ele>
<time>2018-07-20T10:21:24Z</time></trkpt>
<trkpt lat="52.284416" lon="-1.664883">
<ele>118</ele>
<time>2018-07-20T10:23:24Z</time></trkpt>
<trkpt lat="52.284566" lon="-1.665">
<ele>118</ele>
<time>2018-07-20T10:23:37Z</time></trkpt>
<trkpt lat="52.2855" lon="-1.667266">
<ele>116</ele>
<time>2018-07-20T10:25:51Z</time></trkpt>
<trkpt lat="52.28585" lon="-1.66905">
<ele>110</ele>
<time>2018-07-20T10:27:23Z</time></trkpt>
<trkpt lat="52.286166" lon="-1.670316">
<ele>109</ele>
<time>2018-07-20T10:28:30Z</time></trkpt>
<trkpt lat="52.286383" lon="-1.670833">
<ele>109</ele>
<time>2018-07-20T10:29:01Z</time></trkpt>
<trkpt lat="52.2875" lon="-1.670916">
<ele>111</ele>
<time>2018-07-20T10:30:31Z</time></trkpt>
<trkpt lat="52.2878" lon="-1.671116">
<ele>111</ele>
<time>2018-07-20T10:30:57Z</time></trkpt>
<trkpt lat="52.287966" lon="-1.671533">
<ele>111</ele>
<time>2018-07-20T10:31:21Z</time></trkpt>
<trkpt lat="52.288083" lon="-1.672">
<ele>111</ele>
<time>2018-07-20T10:31:46Z</time></trkpt>
<trkpt lat="52.288383" lon="-1.674366">
<ele>109</ele>
<time>2018-07-20T10:33:44Z</time></trkpt>
<trkpt lat="52.288283" lon="-1.6755">
<ele>107</ele>
<time>2018-07-20T10:34:40Z</time></trkpt>
<trkpt lat="52.288333" lon="-1.676166">
<ele>105</ele>
<time>2018-07-20T10:35:13Z</time></trkpt>
<trkpt lat="52.28885" lon="-1.677583">
<ele>98</ele>
<time>2018-07-20T10:36:34Z</time></trkpt>
<trkpt lat="52.289333" lon="-1.679533">
<ele>97</ele>
<time>2018-07-20T10:38:17Z</time></trkpt>
<trkpt lat="52.289783" lon="-1.68085">
<ele>101</ele>
<time>2018-07-20T10:39:31Z</time></trkpt>
<trkpt lat="52.292666" lon="-1.68625">
<ele>117</ele>
<time>2018-07-20T10:45:23Z</time></trkpt>
<trkpt lat="52.29335" lon="-1.688083">
<ele>122</ele>
<time>2018-07-20T10:47:08Z</time></trkpt>
<trkpt lat="52.294466" lon="-1.690633">
<ele>123</ele>
<time>2018-07-20T10:49:42Z</time></trkpt>
<trkpt lat="52.29465" lon="-1.691516">
<ele>122</ele>
<time>2018-07-20T10:50:27Z</time></trkpt>
<trkpt lat="52.2946" lon="-1.692916">
<ele>122</ele>
<time>2018-07-20T10:51:36Z</time></trkpt>
<trkpt lat="52.295016" lon="-1.694733">
<ele>117</ele>
<time>2018-07-20T10:53:11Z</time></trkpt>
<trkpt lat="52.295366" lon="-1.696716">
<ele>116</ele>
<time>2018-07-20T10:54:52Z</time></trkpt>
<trkpt lat="52.2955" lon="-1.697066">
<ele>117</ele>
<time>2018-07-20T10:55:13Z</time></trkpt>
<trkpt lat="52.296733" lon="-1.698683">
<ele>116</ele>
<time>2018-07-20T10:57:19Z</time></trkpt>
<trkpt lat="52.298783" lon="-1.701666">
<ele>123</ele>
<time>2018-07-20T11:00:59Z</time></trkpt>
<trkpt lat="52.299283" lon="-1.702683">
<ele>124</ele>
<time>2018-07-20T11:02:03Z</time></trkpt>
<trkpt lat="52.29935" lon="-1.703716">
<ele>123</ele>
<time>2018-07-20T11:02:54Z</time></trkpt>
<trkpt lat="52.299483" lon="-1.704183">
<ele>122</ele>
<time>2018-07-20T11:03:19Z</time></trkpt>
<trkpt lat="52.299766" lon="-1.704316">
<ele>121</ele>
<time>2018-07-20T11:03:43Z</time></trkpt>
<trkpt lat="52.300233" lon="-1.704">
<ele>123</ele>
<time>2018-07-20T11:04:24Z</time></trkpt>
<trkpt lat="52.300716" lon="-1.70385">
<ele>124</ele>
<time>2018-07-20T11:05:03Z</time></trkpt>
<trkpt lat="52.300983" lon="-1.704">
<ele>124</ele>
<time>2018-07-20T11:05:26Z</time></trkpt>
<trkpt lat="52.301283" lon="-1.704883">
<ele>122</ele>
<time>2018-07-20T11:06:15Z</time></trkpt>
<trkpt lat="52.301616" lon="-1.70555">
<ele>124</ele>
<time>2018-07-20T11:06:57Z</time></trkpt>
<trkpt lat="52.3018" lon="-1.705816">
<ele>124</ele>
<time>2018-07-20T11:07:17Z</time></trkpt>
<trkpt lat="52.3024" lon="-1.70625">
<ele>123</ele>
<time>2018-07-20T11:08:10Z</time></trkpt>
<trkpt lat="52.30295" lon="-1.7068">
<ele>123</ele>
<time>2018-07-20T11:09:01Z</time></trkpt>
<trkpt lat="52.3034" lon="-1.707433">
<ele>122</ele>
<time>2018-07-20T11:09:49Z</time></trkpt>
<trkpt lat="52.303766" lon="-1.7082">
<ele>121</ele>
<time>2018-07-20T11:10:36Z</time></trkpt>
<trkpt lat="52.304283" lon="-1.708833">
<ele>120</ele>
<time>2018-07-20T11:11:28Z</time></trkpt>
<trkpt lat="52.305283" lon="-1.70945">
<ele>117</ele>
<time>2018-07-20T11:12:54Z</time></trkpt>
<trkpt lat="52.306283" lon="-1.709483">
<ele>110</ele>
<time>2018-07-20T11:14:14Z</time></trkpt>
<trkpt lat="52.3068" lon="-1.7098">
<ele>107</ele>
<time>2018-07-20T11:14:58Z</time></trkpt>
<trkpt lat="52.307616" lon="-1.710533">
<ele>98</ele>
<time>2018-07-20T11:16:13Z</time></trkpt>
<trkpt lat="52.307733" lon="-1.71095">
<ele>97</ele>
<time>2018-07-20T11:16:35Z</time></trkpt>
<trkpt lat="52.30775" lon="-1.71165">
<ele>94</ele>
<time>2018-07-20T11:17:10Z</time></trkpt>
<trkpt lat="52.307516" lon="-1.7161">
<ele>90</ele>
<time>2018-07-20T11:20:49Z</time></trkpt>
<trkpt lat="52.307933" lon="-1.7182">
<ele>91</ele>
<time>2018-07-20T11:22:37Z</time></trkpt>
<trkpt lat="52.307966" lon="-1.719266">
<ele>92</ele>
<time>2018-07-20T11:23:29Z</time></trkpt>
<trkpt lat="52.307783" lon="-1.7202">
<ele>92</ele>
<time>2018-07-20T11:24:17Z</time></trkpt>
<trkpt lat="52.3076" lon="-1.720666">
<ele>91</ele>
<time>2018-07-20T11:24:44Z</time></trkpt>
<trkpt lat="52.306566" lon="-1.722433">
<ele>91</ele>
<time>2018-07-20T11:26:44Z</time></trkpt>
<trkpt lat="52.306566" lon="-1.722966">
<ele>89</ele>
<time>2018-07-20T11:27:10Z</time></trkpt>
<trkpt lat="52.307016" lon="-1.7242">
<ele>88</ele>
<time>2018-07-20T11:28:21Z</time></trkpt>
<trkpt lat="52.307533" lon="-1.72505">
<ele>88</ele>
<time>2018-07-20T11:29:19Z</time></trkpt>
<trkpt lat="52.30765" lon="-1.725416">
<ele>89</ele>
<time>2018-07-20T11:29:40Z</time></trkpt>
<trkpt lat="52.308433" lon="-1.72585">
<ele>90</ele>
<time>2018-07-20T11:30:46Z</time></trkpt>
<trkpt lat="52.3091" lon="-1.727033">
<ele>95</ele>
<time>2018-07-20T11:32:05Z</time></trkpt>
<trkpt lat="52.3096" lon="-1.727566">
<ele>96</ele>
<time>2018-07-20T11:32:53Z</time></trkpt>
<trkpt lat="52.3098" lon="-1.727733">
<ele>95</ele>
<time>2018-07-20T11:33:11Z</time></trkpt>
<trkpt lat="52.31045" lon="-1.728">
<ele>94</ele>
<time>2018-07-20T11:34:04Z</time></trkpt>
<trkpt lat="52.311183" lon="-1.728466">
<ele>95</ele>
<time>2018-07-20T11:35:07Z</time></trkpt>
<trkpt lat="52.312266" lon="-1.729433">
<ele>99</ele>
<time>2018-07-20T11:36:46Z</time></trkpt>
<trkpt lat="52.313016" lon="-1.73025">
<ele>103</ele>
<time>2018-07-20T11:37:59Z</time></trkpt>
<trkpt lat="52.314083" lon="-1.7311">
<ele>105</ele>
<time>2018-07-20T11:39:34Z</time></trkpt>
<trkpt lat="52.315083" lon="-1.73165">
<ele>106</ele>
<time>2018-07-20T11:40:58Z</time></trkpt>
<trkpt lat="52.31575" lon="-1.732116">
<ele>107</ele>
<time>2018-07-20T11:41:56Z</time></trkpt>
<trkpt lat="52.31645" lon="-1.7329">
<ele>107</ele>
<time>2018-07-20T11:43:04Z</time></trkpt>
<trkpt lat="52.31695" lon="-1.733333">
<ele>107</ele>
<time>2018-07-20T11:43:50Z</time></trkpt>
<trkpt lat="52.318733" lon="-1.73475">
<ele>113</ele>
<time>2018-07-20T11:46:29Z</time></trkpt>
<trkpt lat="52.3194" lon="-1.735083">
<ele>115</ele>
<time>2018-07-20T11:47:24Z</time></trkpt>
<trkpt lat="52.319533" lon="-1.735266">
<ele>115</ele>
<time>2018-07-20T11:47:38Z</time></trkpt>
<trkpt lat="52.319483" lon="-1.73555">
<ele>115</ele>
<time>2018-07-20T11:47:53Z</time></trkpt>
<trkpt lat="52.319083" lon="-1.7364">
<ele>114</ele>
<time>2018-07-20T11:48:45Z</time></trkpt>
<trkpt lat="52.318966" lon="-1.737933">
<ele>110</ele>
<time>2018-07-20T11:50:01Z</time></trkpt>
<trkpt lat="52.319" lon="-1.7409">
<ele>104</ele>
<time>2018-07-20T11:52:26Z</time></trkpt>
<trkpt lat="52.319316" lon="-1.7415">
<ele>99</ele>
<time>2018-07-20T11:53:05Z</time></trkpt>
<trkpt lat="52.32005" lon="-1.742">
<ele>97</ele>
<time>2018-07-20T11:54:09Z</time></trkpt>
<trkpt lat="52.321383" lon="-1.742633">
<ele>101</ele>
<time>2018-07-20T11:56:00Z</time></trkpt>
<trkpt lat="52.321983" lon="-1.742566">
<ele>101</ele>
<time>2018-07-20T11:56:48Z</time></trkpt>
<trkpt lat="52.322033" lon="-1.742983">
<ele>102</ele>
<time>2018-07-20T11:57:09Z</time></trkpt>
<trkpt lat="52.321783" lon="-1.7439">
<ele>102</ele>
<time>2018-07-20T11:57:58Z</time></trkpt>
<trkpt lat="52.32145" lon="-1.744766">
<ele>100</ele>
<time>2018-07-20T11:58:49Z</time></trkpt>
<trkpt lat="52.3214" lon="-1.745216">
<ele>99</ele>
<time>2018-07-20T11:59:11Z</time></trkpt>
<trkpt lat="52.3216" lon="-1.748916">
<ele>109</ele>
<time>2018-07-20T12:02:13Z</time></trkpt>
<trkpt lat="52.321866" lon="-1.750133">
<ele>112</ele>
<time>2018-07-20T12:03:16Z</time></trkpt>
<trkpt lat="52.321916" lon="-1.751483">
<ele>116</ele>
<time>2018-07-20T12:04:23Z</time></trkpt>
<trkpt lat="52.322383" lon="-1.754916">
<ele>132</ele>
<time>2018-07-20T12:07:15Z</time></trkpt>
<trkpt lat="52.3226" lon="-1.756">
<ele>129</ele>
<time>2018-07-20T12:08:11Z</time></trkpt>
<trkpt lat="52.322833" lon="-1.75675">
<ele>127</ele>
<time>2018-07-20T12:08:52Z</time></trkpt>
<trkpt lat="52.32445" lon="-1.758666">
<ele>132</ele>
<time>2018-07-20T12:11:32Z</time></trkpt>
<trkpt lat="52.324866" lon="-1.759666">
<ele>133</ele>
<time>2018-07-20T12:12:31Z</time></trkpt>
<trkpt lat="52.324983" lon="-1.760366">
<ele>134</ele>
<time>2018-07-20T12:13:07Z</time></trkpt>
<trkpt lat="52.3249" lon="-1.761616">
<ele>135</ele>
<time>2018-07-20T12:14:08Z</time></trkpt>
<trkpt lat="52.32445" lon="-1.763383">
<ele>134</ele>
<time>2018-07-20T12:15:42Z</time></trkpt>
<trkpt lat="52.3241" lon="-1.76545">
<ele>136</ele>
<time>2018-07-20T12:17:27Z</time></trkpt>
<trkpt lat="52.324" lon="-1.766333">
<ele>136</ele>
<time>2018-07-20T12:18:11Z</time></trkpt>
<trkpt lat="52.324016" lon="-1.767">
<ele>137</ele>
<time>2018-07-20T12:18:44Z</time></trkpt>
<trkpt lat="52.323783" lon="-1.768916">
<ele>138</ele>
<time>2018-07-20T12:20:20Z</time></trkpt>
<trkpt lat="52.323516" lon="-1.77035">
<ele>137</ele>
<time>2018-07-20T12:21:33Z</time></trkpt>
<trkpt lat="52.323083" lon="-1.775116">
<ele>137</ele>
<time>2018-07-20T12:25:29Z</time></trkpt>
<trkpt lat="52.3232" lon="-1.775366">
<ele>137</ele>
<time>2018-07-20T12:25:45Z</time></trkpt>
<trkpt lat="52.324383" lon="-1.776616">
<ele>137</ele>
<time>2018-07-20T12:27:37Z</time></trkpt>
<trkpt lat="52.325883" lon="-1.778633">
<ele>139</ele>
<time>2018-07-20T12:30:13Z</time></trkpt>
<trkpt lat="52.326533" lon="-1.779616">
<ele>139</ele>
<time>2018-07-20T12:31:24Z</time></trkpt>
<trkpt lat="52.327083" lon="-1.780733">
<ele>137</ele>
<time>2018-07-20T12:32:34Z</time></trkpt>
<trkpt lat="52.327266" lon="-1.7817">
<ele>138</ele>
<time>2018-07-20T12:33:24Z</time></trkpt>
<trkpt lat="52.327583" lon="-1.782733">
<ele>137</ele>
<time>2018-07-20T12:34:20Z</time></trkpt>
<trkpt lat="52.3278" lon="-1.784183">
<ele>137</ele>
<time>2018-07-20T12:35:34Z</time></trkpt>
<trkpt lat="52.327866" lon="-1.786983">
<ele>139</ele>
<time>2018-07-20T12:37:51Z</time></trkpt>
<trkpt lat="52.32815" lon="-1.787833">
<ele>139</ele>
<time>2018-07-20T12:38:38Z</time></trkpt>
<trkpt lat="52.32915" lon="-1.78885">
<ele>142</ele>
<time>2018-07-20T12:40:13Z</time></trkpt>
<trkpt lat="52.329483" lon="-1.78895">
<ele>141</ele>
<time>2018-07-20T12:40:40Z</time></trkpt>
<trkpt lat="52.331983" lon="-1.789466">
<ele>141</ele>
<time>2018-07-20T12:44:02Z</time></trkpt>
<trkpt lat="52.332666" lon="-1.78975">
<ele>141</ele>
<time>2018-07-20T12:44:58Z</time></trkpt>
<trkpt lat="52.333033" lon="-1.7897">
<ele>140</ele>
<time>2018-07-20T12:45:28Z</time></trkpt>
<trkpt lat="52.3337" lon="-1.789433">
<ele>139</ele>
<time>2018-07-20T12:46:23Z</time></trkpt>
<trkpt lat="52.334016" lon="-1.789383">
<ele>138</ele>
<time>2018-07-20T12:46:48Z</time></trkpt>
<trkpt lat="52.334866" lon="-1.788933">
<ele>137</ele>
<time>2018-07-20T12:48:00Z</time></trkpt>
<trkpt lat="52.335133" lon="-1.788683">
<ele>136</ele>
<time>2018-07-20T12:48:24Z</time></trkpt>
<trkpt lat="52.336183" lon="-1.787433">
<ele>133</ele>
<time>2018-07-20T12:50:09Z</time></trkpt>
<trkpt lat="52.336766" lon="-1.786916">
<ele>131</ele>
<time>2018-07-20T12:51:02Z</time></trkpt>
<trkpt lat="52.337766" lon="-1.7858">
<ele>126</ele>
<time>2018-07-20T12:52:39Z</time></trkpt>
<trkpt lat="52.339783" lon="-1.783783">
<ele>122</ele>
<time>2018-07-20T12:55:48Z</time></trkpt>
<trkpt lat="52.340116" lon="-1.7836">
<ele>122</ele>
<time>2018-07-20T12:56:16Z</time></trkpt>
<trkpt lat="52.340616" lon="-1.78345">
<ele>121</ele>
<time>2018-07-20T12:56:57Z</time></trkpt>
<trkpt lat="52.342066" lon="-1.783533">
<ele>125</ele>
<time>2018-07-20T12:58:53Z</time></trkpt>
<trkpt lat="52.342833" lon="-1.783433">
<ele>125</ele>
<time>2018-07-20T12:59:55Z</time></trkpt>
<trkpt lat="52.34305" lon="-1.783283">
<ele>126</ele>
<time>2018-07-20T13:00:14Z</time></trkpt>
<trkpt lat="52.34435" lon="-1.781583">
<ele>131</ele>
<time>2018-07-20T13:02:27Z</time></trkpt>
<trkpt lat="52.346066" lon="-1.7801">
<ele>134</ele>
<time>2018-07-20T13:05:03Z</time></trkpt>
<trkpt lat="52.346433" lon="-1.779866">
<ele>136</ele>
<time>2018-07-20T13:05:34Z</time></trkpt>
<trkpt lat="52.3473" lon="-1.779033">
<ele>141</ele>
<time>2018-07-20T13:06:55Z</time></trkpt>
<trkpt lat="52.3479" lon="-1.77875">
<ele>143</ele>
<time>2018-07-20T13:07:45Z</time></trkpt>
<trkpt lat="52.348316" lon="-1.77875">
<ele>143</ele>
<time>2018-07-20T13:08:18Z</time></trkpt>
<trkpt lat="52.348733" lon="-1.778866">
<ele>143</ele>
<time>2018-07-20T13:08:52Z</time></trkpt>
<trkpt lat="52.348833" lon="-1.778966">
<ele>142</ele>
<time>2018-07-20T13:09:02Z</time></trkpt>
<trkpt lat="52.34885" lon="-1.779433">
<ele>141</ele>
<time>2018-07-20T13:09:24Z</time></trkpt>
<trkpt lat="52.35" lon="-1.782333">
<ele>143</ele>
<time>2018-07-20T13:12:14Z</time></trkpt>
<trkpt lat="52.351366" lon="-1.786633">
<ele>143</ele>
<time>2018-07-20T13:16:11Z</time></trkpt>
<trkpt lat="52.351716" lon="-1.787266">
<ele>143</ele>
<time>2018-07-20T13:16:53Z</time></trkpt>
<trkpt lat="52.351866" lon="-1.7877">
<ele>142</ele>
<time>2018-07-20T13:17:17Z</time></trkpt>
<trkpt lat="52.352483" lon="-1.791533">
<ele>145</ele>
<time>2018-07-20T13:20:31Z</time></trkpt>
<trkpt lat="52.353266" lon="-1.794466">
<ele>141</ele>
<time>2018-07-20T13:23:08Z</time></trkpt>
<trkpt lat="52.353816" lon="-1.7976">
<ele>140</ele>
<time>2018-07-20T13:25:48Z</time></trkpt>
<trkpt lat="52.35445" lon="-1.800583">
<ele>144</ele>
<time>2018-07-20T13:28:22Z</time></trkpt>
<trkpt lat="52.35475" lon="-1.802633">
<ele>148</ele>
<time>2018-07-20T13:30:05Z</time></trkpt>
<trkpt lat="52.355333" lon="-1.805266">
<ele>150</ele>
<time>2018-07-20T13:32:23Z</time></trkpt>
<trkpt lat="52.356466" lon="-1.80975">
<ele>144</ele>
<time>2018-07-20T13:36:20Z</time></trkpt>
<trkpt lat="52.356933" lon="-1.810816">
<ele>146</ele>
<time>2018-07-20T13:37:24Z</time></trkpt>
<trkpt lat="52.357633" lon="-1.81185">
<ele>148</ele>
<time>2018-07-20T13:38:40Z</time></trkpt>
<trkpt lat="52.35815" lon="-1.812883">
<ele>149</ele>
<time>2018-07-20T13:39:45Z</time></trkpt>
<trkpt lat="52.35865" lon="-1.814033">
<ele>150</ele>
<time>2018-07-20T13:40:54Z</time></trkpt>
<trkpt lat="52.35905" lon="-1.815266">
<ele>150</ele>
<time>2018-07-20T13:42:03Z</time></trkpt>
<trkpt lat="52.359433" lon="-1.81705">
<ele>145</ele>
<time>2018-07-20T13:43:35Z</time></trkpt>
<trkpt lat="52.359483" lon="-1.818183">
<ele>142</ele>
<time>2018-07-20T13:44:31Z</time></trkpt>
<trkpt lat="52.359633" lon="-1.8193">
<ele>142</ele>
<time>2018-07-20T13:45:27Z</time></trkpt>
<trkpt lat="52.360266" lon="-1.821266">
<ele>151</ele>
<time>2018-07-20T13:47:16Z</time></trkpt>
<trkpt lat="52.360566" lon="-1.823683">
<ele>153</ele>
<time>2018-07-20T13:49:16Z</time></trkpt>
<trkpt lat="52.361033" lon="-1.825266">
<ele>149</ele>
<time>2018-07-20T13:50:42Z</time></trkpt>
<trkpt lat="52.361566" lon="-1.826683">
<ele>151</ele>
<time>2018-07-20T13:52:04Z</time></trkpt>
<trkpt lat="52.361616" lon="-1.827016">
<ele>151</ele>
<time>2018-07-20T13:52:21Z</time></trkpt>
<trkpt lat="52.36255" lon="-1.828616">
<ele>150</ele>
<time>2018-07-20T13:54:09Z</time></trkpt>
<trkpt lat="52.363016" lon="-1.829233">
<ele>150</ele>
<time>2018-07-20T13:54:57Z</time></trkpt>
<trkpt lat="52.363183" lon="-1.829616">
<ele>150</ele>
<time>2018-07-20T13:55:20Z</time></trkpt>
<trkpt lat="52.363233" lon="-1.829683">
<ele>150</ele>
<time>2018-07-20T13:55:25Z</time></trkpt>
<trkpt lat="52.3634" lon="-1.829616">
<ele>149</ele>
<time>2018-07-20T13:55:39Z</time></trkpt>
<trkpt lat="52.365533" lon="-1.832816">
<ele>139</ele>
<time>2018-07-20T13:59:31Z</time></trkpt>
<trkpt lat="52.3657" lon="-1.833266">
<ele>139</ele>
<time>2018-07-20T13:59:57Z</time></trkpt>
<trkpt lat="52.365933" lon="-1.833416">
<ele>139</ele>
<time>2018-07-20T14:00:17Z</time></trkpt>
<trkpt lat="52.367133" lon="-1.83515">
<ele>140</ele>
<time>2018-07-20T14:02:25Z</time></trkpt>
<trkpt lat="52.367616" lon="-1.835616">
<ele>142</ele>
<time>2018-07-20T14:03:10Z</time></trkpt>
<trkpt lat="52.3679" lon="-1.836033">
<ele>144</ele>
<time>2018-07-20T14:03:40Z</time></trkpt>
<trkpt lat="52.368066" lon="-1.836133">
<ele>145</ele>
<time>2018-07-20T14:03:55Z</time></trkpt>
<trkpt lat="52.3685" lon="-1.83585">
<ele>146</ele>
<time>2018-07-20T14:04:32Z</time></trkpt>
</trkseg>
</trk>
</gpx>